createdAt,value
2023-03-31T00:01:45.052Z,95301.66
2023-03-31T00:04:14.316Z,95305.85
2023-03-31T00:06:44.360Z,95312.85
2023-03-31T00:09:17.794Z,95309.75
2023-03-31T00:11:47.428Z,95311.13
2023-03-31T00:14:17.983Z,95294.22
2023-03-31T00:16:47.316Z,95297.33
2023-03-31T00:19:34.380Z,95295.70
2023-03-31T00:22:10.782Z,95294.58
2023-03-31T00:24:39.545Z,95292.78
2023-03-31T00:27:08.259Z,95296.35
2023-03-31T00:29:37.104Z,95305.09
2023-03-31T00:32:05.960Z,95297.58
2023-03-31T00:34:34.818Z,95292.73
2023-03-31T00:37:03.529Z,95295.14
2023-03-31T00:39:33.983Z,95284.77
2023-03-31T00:42:06.126Z,95291.45
2023-03-31T00:44:34.751Z,95284.29
2023-03-31T00:47:09.849Z,95286.92
2023-03-31T00:49:54.444Z,95275.27
2023-03-31T00:52:36.711Z,95283.28
2023-03-31T00:55:08.592Z,95271.28
2023-03-31T00:57:40.157Z,95270.92
2023-03-31T01:00:15.451Z,95268.42
2023-03-31T01:02:48.705Z,95265.81
2023-03-31T01:05:17.828Z,95258.34
2023-03-31T01:07:49.046Z,95255.27
2023-03-31T01:10:17.828Z,95257.92
2023-03-31T01:12:49.905Z,95257.17
2023-03-31T01:15:18.569Z,95257.10
2023-03-31T01:17:49.752Z,95256.52
2023-03-31T01:21:02.628Z,95258.47
2023-03-31T01:23:44.261Z,95256.25
2023-03-31T01:26:42.134Z,95263.53
2023-03-31T01:29:18.181Z,95260.44
2023-03-31T01:31:59.050Z,95271.00
2023-03-31T01:34:47.225Z,95269.39
2023-03-31T01:37:35.516Z,95264.91
2023-03-31T01:40:26.761Z,95274.75
2023-03-31T01:42:58.579Z,95278.38
2023-03-31T01:45:46.970Z,95274.27
2023-03-31T01:48:24.504Z,95282.58
2023-03-31T01:50:59.243Z,95281.32
2023-03-31T01:53:36.401Z,95288.38
2023-03-31T01:56:23.650Z,95291.52
2023-03-31T01:59:01.899Z,95297.45
2023-03-31T02:01:37.295Z,95291.44
2023-03-31T02:04:08.616Z,95296.12
2023-03-31T02:06:40.292Z,95299.98
2023-03-31T02:09:11.846Z,95298.69
2023-03-31T02:11:42.483Z,95300.06
2023-03-31T02:14:14.095Z,95285.67
2023-03-31T02:16:48.040Z,95306.55
2023-03-31T02:19:19.822Z,95305.98
2023-03-31T02:21:51.021Z,95314.66
2023-03-31T02:24:22.848Z,95321.27
2023-03-31T02:26:57.098Z,95318.32
2023-03-31T02:29:26.227Z,95326.63
2023-03-31T02:31:58.003Z,95324.92
2023-03-31T02:34:26.834Z,95336.78
2023-03-31T02:36:55.868Z,95327.14
2023-03-31T02:39:33.079Z,95339.21
2023-03-31T02:42:04.423Z,95343.69
2023-03-31T02:44:33.172Z,95343.35
2023-03-31T02:47:03.150Z,95340.73
2023-03-31T02:49:33.747Z,95337.41
2023-03-31T02:52:05.347Z,95342.27
2023-03-31T02:55:02.713Z,95332.52
2023-03-31T02:57:50.769Z,95289.40
2023-03-31T03:00:45.099Z,95315.70
2023-03-31T03:03:31.747Z,95314.95
2023-03-31T03:06:06.726Z,95308.03
2023-03-31T03:08:52.277Z,95294.87
2023-03-31T03:11:29.874Z,95294.62
2023-03-31T03:14:13.446Z,95213.27
2023-03-31T03:16:48.260Z,95289.41
2023-03-31T03:19:22.750Z,95289.13
2023-03-31T03:21:51.527Z,95275.05
2023-03-31T03:24:21.960Z,95277.73
2023-03-31T03:26:51.996Z,95267.63
2023-03-31T03:29:20.784Z,95267.63
2023-03-31T03:31:49.554Z,95275.91
2023-03-31T03:34:19.017Z,95273.44
2023-03-31T03:36:48.561Z,95270.72
2023-03-31T03:39:17.213Z,95271.34
2023-03-31T03:41:46.986Z,95261.84
2023-03-31T03:44:15.955Z,95237.92
2023-03-31T03:46:47.608Z,95259.27
2023-03-31T03:49:16.581Z,95253.88
2023-03-31T03:51:45.293Z,95256.12
2023-03-31T03:54:14.719Z,95252.34
2023-03-31T03:56:43.450Z,95246.59
2023-03-31T03:59:13.136Z,95246.26
2023-03-31T04:01:41.996Z,95247.84
2023-03-31T04:04:10.723Z,95243.52
2023-03-31T04:06:39.603Z,95254.92
2023-03-31T04:09:08.418Z,95261.05
2023-03-31T04:11:37.113Z,95262.78
2023-03-31T04:14:06.519Z,95265.38
2023-03-31T04:16:35.253Z,95266.53
2023-03-31T04:19:05.135Z,95271.16
2023-03-31T04:21:36.680Z,95244.22
2023-03-31T04:24:05.535Z,95270.24
2023-03-31T04:26:44.976Z,95273.75
2023-03-31T04:29:20.591Z,95271.25
2023-03-31T04:31:51.267Z,95269.91
2023-03-31T04:34:21.580Z,95274.80
2023-03-31T04:36:50.322Z,95268.27
2023-03-31T04:39:24.992Z,95263.19
2023-03-31T04:41:55.785Z,95257.95
2023-03-31T04:44:24.707Z,95257.38
2023-03-31T04:46:53.891Z,95256.17
2023-03-31T04:55:15.099Z,95248.26
2023-03-31T04:57:43.931Z,95246.40
2023-03-31T05:00:15.702Z,95242.27
2023-03-31T05:02:45.923Z,95249.06
2023-03-31T05:05:14.942Z,95242.48
2023-03-31T05:07:43.737Z,95244.67
2023-03-31T05:30:58.155Z,95229.20
2023-03-31T05:33:45.648Z,95227.16
2023-03-31T05:45:09.536Z,95218.02
2023-03-31T05:47:38.279Z,95215.77
2023-03-31T05:50:14.986Z,95213.98
2023-03-31T05:52:44.038Z,95214.82
2023-03-31T05:55:13.345Z,95230.59
2023-03-31T05:57:42.086Z,95221.26
2023-03-31T06:00:11.800Z,95224.84
2023-03-31T06:02:41.903Z,95228.48
2023-03-31T06:05:10.951Z,95226.03
2023-03-31T06:07:41.629Z,95232.48
2023-03-31T06:10:11.145Z,95227.33
2023-03-31T06:12:56.765Z,95227.31
2023-03-31T06:15:29.072Z,95232.02
2023-03-31T06:17:57.916Z,95233.25
2023-03-31T06:20:28.550Z,95226.92
2023-03-31T06:22:57.329Z,95226.19
2023-03-31T06:25:26.282Z,95220.63
2023-03-31T06:27:55.026Z,95217.06
2023-03-31T06:30:23.850Z,95227.41
2023-03-31T06:32:54.116Z,95219.09
2023-03-31T06:35:52.874Z,95220.70
2023-03-31T06:38:21.641Z,95219.58
2023-03-31T06:40:51.882Z,95217.86
2023-03-31T06:43:21.028Z,95217.92
2023-03-31T06:45:53.320Z,95220.70
2023-03-31T06:48:24.345Z,95219.63
2023-03-31T06:50:57.530Z,95230.61
2023-03-31T06:53:26.327Z,95234.66
2023-03-31T06:55:55.077Z,95234.00
2023-03-31T06:58:29.076Z,95236.64
2023-03-31T07:00:59.833Z,95228.34
2023-03-31T07:03:29.756Z,95224.21
2023-03-31T07:05:58.608Z,95220.64
2023-03-31T07:08:27.336Z,95213.03
2023-03-31T07:10:58.819Z,95194.80
2023-03-31T07:13:29.799Z,95183.72
2023-03-31T07:15:58.736Z,95183.13
2023-03-31T07:18:29.168Z,95174.88
2023-03-31T07:21:01.076Z,95160.84
2023-03-31T07:23:29.912Z,95159.70
2023-03-31T07:26:02.954Z,95144.75
2023-03-31T07:28:33.793Z,95151.55
2023-03-31T07:31:02.595Z,95159.41
2023-03-31T07:44:08.710Z,95161.37
2023-03-31T07:47:22.351Z,95153.27
2023-03-31T07:50:00.513Z,95151.19
2023-03-31T07:59:10.542Z,95152.43
2023-03-31T08:20:13.238Z,95128.32
2023-03-31T08:25:33.607Z,95128.95
2023-03-31T08:35:02.816Z,95123.42
2023-03-31T08:37:39.593Z,95122.61
2023-03-31T08:45:49.644Z,95115.37
2023-03-31T08:48:41.178Z,95073.98
2023-03-31T08:51:35.140Z,95089.06
2023-03-31T08:54:21.976Z,95122.63
2023-03-31T08:56:52.450Z,95111.75
2023-03-31T08:59:40.967Z,95101.34
2023-03-31T09:02:54.918Z,95111.09
2023-03-31T09:05:58.911Z,95086.45
2023-03-31T09:08:56.040Z,95082.67
2023-03-31T09:14:53.131Z,95076.54
2023-03-31T09:17:48.164Z,95074.88
2023-03-31T09:20:22.262Z,95077.47
2023-03-31T09:23:00.133Z,95077.94
2023-03-31T09:32:34.104Z,95077.23
2023-03-31T09:35:36.565Z,95076.19
2023-03-31T09:38:43.491Z,95076.56
2023-03-31T09:41:20.112Z,95066.66
2023-03-31T09:50:20.054Z,95068.11
2023-03-31T09:52:55.360Z,95060.03
2023-03-31T09:59:03.086Z,95062.27
2023-03-31T10:01:36.876Z,95059.17
2023-03-31T10:04:15.980Z,95059.28
2023-03-31T10:06:47.464Z,94979.63
2023-03-31T10:09:17.256Z,95048.98
2023-03-31T10:12:03.173Z,95001.66
2023-03-31T10:15:09.642Z,95039.70
2023-03-31T10:17:40.620Z,95037.39
2023-03-31T10:20:11.227Z,95029.36
2023-03-31T10:22:56.280Z,95027.61
2023-03-31T10:28:38.166Z,95012.38
2023-03-31T10:44:47.699Z,94991.53
2023-03-31T10:47:25.961Z,95002.67
2023-03-31T10:49:59.300Z,95003.50
2023-03-31T10:52:29.025Z,95005.95
2023-03-31T10:55:02.294Z,94993.52
2023-03-31T10:57:45.727Z,94995.09
2023-03-31T11:00:47.596Z,94993.60
2023-03-31T11:07:05.979Z,94994.51
2023-03-31T11:17:23.239Z,94977.98
2023-03-31T11:20:14.170Z,94972.19
2023-03-31T11:25:40.520Z,94966.62
2023-03-31T11:28:34.264Z,94964.23
2023-03-31T11:32:08.176Z,94960.27
2023-03-31T11:34:21.408Z,94952.73
2023-03-31T11:37:25.472Z,94949.88
2023-03-31T11:40:13.872Z,94940.18
2023-03-31T11:42:55.155Z,94935.91
2023-03-31T11:45:32.747Z,94939.91
2023-03-31T11:48:07.444Z,94932.92
2023-03-31T11:50:39.766Z,94932.80
2023-03-31T11:53:23.958Z,94936.12
2023-03-31T11:56:11.033Z,94926.61
2023-03-31T11:58:56.458Z,94924.09
2023-03-31T12:08:23.997Z,94910.13
2023-03-31T12:11:33.214Z,94900.83
2023-03-31T12:14:09.399Z,94897.36
2023-03-31T12:16:59.972Z,94889.45
2023-03-31T12:19:54.682Z,94892.64
2023-03-31T12:22:29.193Z,94888.58
2023-03-31T12:28:36.800Z,94883.78
2023-03-31T12:31:12.371Z,94877.23
2023-03-31T12:37:51.844Z,94864.35
2023-03-31T12:40:41.413Z,94871.95
2023-03-31T12:43:17.229Z,94865.33
2023-03-31T12:46:08.402Z,94868.92
2023-03-31T12:49:20.050Z,94863.93
2023-03-31T13:12:31.811Z,94797.84
2023-03-31T13:15:22.950Z,94799.25
2023-03-31T13:18:02.254Z,94762.00
2023-03-31T13:23:37.745Z,94776.56
2023-03-31T13:26:08.542Z,94768.22
2023-03-31T13:29:19.948Z,94750.73
2023-03-31T13:35:40.115Z,94732.30
2023-03-31T13:38:13.165Z,94734.71
2023-03-31T13:41:13.267Z,94725.16
2023-03-31T13:44:07.146Z,94725.52
2023-03-31T13:46:51.626Z,94716.74
2023-03-31T13:49:49.215Z,94703.09
2023-03-31T13:59:37.060Z,94699.14
2023-03-31T14:02:38.979Z,94691.66
2023-03-31T14:05:31.465Z,94684.78
2023-03-31T14:08:05.039Z,94690.77
2023-03-31T14:10:41.705Z,94683.59
2023-03-31T14:13:33.999Z,94683.97
2023-03-31T14:22:46.006Z,94681.16
2023-03-31T14:25:36.979Z,94676.27
2023-03-31T14:28:39.887Z,94677.34
2023-03-31T14:31:41.929Z,94670.81
2023-03-31T14:35:25.048Z,94674.69
2023-03-31T14:40:33.495Z,94655.33
2023-03-31T14:43:12.191Z,94654.98
2023-03-31T14:48:58.121Z,94650.31
2023-03-31T14:51:47.169Z,94637.32
2023-03-31T14:54:20.894Z,94631.93
2023-03-31T14:56:52.874Z,94636.22
2023-03-31T14:59:37.728Z,94635.30
2023-03-31T15:02:08.852Z,94629.98
2023-03-31T15:04:45.240Z,94631.94
2023-03-31T15:08:09.202Z,94630.05
2023-03-31T15:10:00.304Z,94633.23
2023-03-31T15:12:38.225Z,94630.70
2023-03-31T15:19:07.786Z,94631.95
2023-03-31T15:21:46.117Z,94640.98
2023-03-31T15:28:01.603Z,94627.59
2023-03-31T15:31:10.033Z,94629.56
2023-03-31T15:33:44.348Z,94628.27
2023-03-31T15:43:44.619Z,94613.84
2023-03-31T15:46:19.087Z,94622.51
2023-03-31T15:49:10.442Z,94621.83
2023-03-31T15:51:36.350Z,94626.34
2023-03-31T15:54:06.818Z,94623.77
2023-03-31T15:56:46.940Z,94615.73
2023-03-31T16:02:05.877Z,94609.12
2023-03-31T16:04:37.637Z,94613.18
2023-03-31T16:07:18.534Z,94617.91
2023-03-31T16:10:11.353Z,94621.92
2023-03-31T16:12:49.825Z,94614.94
2023-03-31T16:15:25.023Z,94614.83
2023-03-31T16:17:58.808Z,94613.20
2023-03-31T16:20:34.932Z,94608.61
2023-03-31T16:23:05.515Z,94601.41
2023-03-31T16:25:37.340Z,94601.87
2023-03-31T16:28:08.516Z,94606.47
2023-03-31T16:30:46.244Z,94609.91
2023-03-31T16:33:26.943Z,94602.81
2023-03-31T16:35:59.944Z,94601.75
2023-03-31T16:39:20.439Z,94605.38
2023-03-31T16:41:49.316Z,94611.66
2023-03-31T16:44:18.303Z,94610.22
2023-03-31T16:46:47.140Z,94613.58
2023-03-31T16:49:16.105Z,94607.67
2023-03-31T16:51:46.852Z,94603.18
2023-03-31T16:54:15.621Z,94604.70
2023-03-31T16:56:47.472Z,94608.38
2023-03-31T16:59:16.480Z,94600.23
2023-03-31T17:01:45.795Z,94596.36
2023-03-31T17:04:14.520Z,94585.45
2023-03-31T17:06:43.644Z,94584.50
2023-03-31T17:09:12.467Z,94571.98
2023-03-31T17:11:50.018Z,94593.30
2023-03-31T17:14:23.628Z,94593.89
2023-03-31T17:16:58.860Z,94606.69
2023-03-31T17:19:40.168Z,94609.45
2023-03-31T17:28:06.329Z,94609.75
2023-03-31T17:30:51.984Z,94610.59
2023-03-31T17:33:24.649Z,94602.17
2023-03-31T17:35:59.623Z,94593.23
2023-03-31T17:47:24.435Z,94604.47
2023-03-31T17:49:53.613Z,94596.28
2023-03-31T17:52:22.729Z,94591.47
2023-03-31T17:54:53.411Z,94592.65
2023-03-31T17:57:22.295Z,94596.66
2023-03-31T17:59:50.998Z,94593.25
2023-03-31T18:02:24.479Z,94594.05
2023-03-31T18:07:55.415Z,94584.69
2023-03-31T18:10:15.465Z,94595.20
2023-03-31T18:12:46.700Z,94564.63
2023-03-31T18:18:11.163Z,94597.42
2023-03-31T18:20:39.906Z,94592.36
2023-03-31T18:23:08.521Z,94596.55
2023-03-31T18:25:37.459Z,94598.78
2023-03-31T18:28:06.685Z,94596.72
2023-03-31T18:30:35.474Z,94592.02
2023-03-31T18:33:07.333Z,94588.92
2023-03-31T18:35:37.237Z,94587.55
2023-03-31T18:38:06.167Z,94584.75
2023-03-31T18:40:37.410Z,94588.61
2023-03-31T18:43:09.703Z,94584.47
2023-03-31T18:45:39.972Z,94577.39
2023-03-31T18:48:15.213Z,94587.61
2023-03-31T18:50:50.144Z,94576.54
2023-03-31T18:53:33.256Z,94569.67
2023-03-31T18:56:06.632Z,94573.47
2023-03-31T18:58:37.726Z,94579.97
2023-03-31T19:01:06.726Z,94575.44
2023-03-31T19:03:36.881Z,94580.26
2023-03-31T19:06:10.911Z,94583.31
2023-03-31T19:08:41.675Z,94579.50
2023-03-31T19:11:18.030Z,94577.75
2023-03-31T19:13:47.026Z,94579.63
2023-03-31T19:16:16.291Z,94583.10
2023-03-31T19:18:46.729Z,94558.12
2023-03-31T19:23:55.427Z,94578.47
2023-03-31T19:26:28.483Z,94589.97
2023-03-31T19:29:09.253Z,94582.92
2023-03-31T19:31:41.706Z,94566.22
2023-03-31T19:34:13.083Z,94579.55
2023-03-31T19:36:41.764Z,94580.52
2023-03-31T19:39:11.586Z,94586.03
2023-03-31T19:41:42.036Z,94578.57
2023-03-31T19:44:12.475Z,94579.09
2023-03-31T19:46:45.645Z,94580.30
2023-03-31T19:49:14.551Z,94573.63
2023-03-31T19:51:45.034Z,94587.42
2023-03-31T19:54:26.050Z,94563.42
2023-03-31T19:56:54.816Z,94581.30
2023-03-31T19:59:30.828Z,94578.70
2023-03-31T20:01:59.793Z,94575.66
2023-03-31T20:04:28.726Z,94584.66
2023-03-31T20:06:57.962Z,94578.38
2023-03-31T20:09:36.475Z,94580.86
2023-03-31T20:12:05.514Z,94576.13
2023-03-31T20:14:34.313Z,94573.06
2023-03-31T20:23:55.331Z,94583.98
2023-03-31T20:32:41.599Z,94578.53
2023-03-31T20:35:14.112Z,94577.80
2023-03-31T20:37:52.134Z,94569.59
2023-03-31T20:40:25.740Z,94576.48
2023-03-31T20:42:56.326Z,94577.83
2023-03-31T20:45:25.450Z,94568.31
2023-03-31T20:47:57.484Z,94566.03
2023-03-31T20:50:28.519Z,94490.30
2023-03-31T20:53:04.949Z,94578.41
2023-03-31T20:55:35.881Z,94522.84
2023-03-31T20:58:06.607Z,94570.62
2023-03-31T21:00:38.989Z,94575.20
2023-03-31T21:03:11.678Z,94577.11
2023-03-31T21:05:56.128Z,94573.69
2023-03-31T21:08:33.911Z,94570.25
2023-03-31T21:11:06.325Z,94566.84
2023-03-31T21:13:37.619Z,94566.84
2023-03-31T21:16:14.746Z,94564.55
2023-03-31T21:18:49.843Z,94562.06
2023-03-31T21:21:19.936Z,94555.61
2023-03-31T21:23:51.648Z,94556.94
2023-03-31T21:26:25.493Z,94557.13
2023-03-31T21:28:55.207Z,94554.07
2023-03-31T21:31:30.535Z,94552.93
2023-03-31T21:34:04.586Z,94553.11
2023-03-31T21:36:33.564Z,94551.02
2023-03-31T21:39:05.749Z,94547.41
2023-03-31T21:41:41.089Z,94549.89
2023-03-31T21:44:10.283Z,94541.72
2023-03-31T21:46:40.005Z,94545.72
2023-03-31T21:49:11.868Z,94542.84
2023-03-31T21:51:41.262Z,94545.14
2023-03-31T21:54:10.246Z,94544.53
2023-03-31T21:56:39.400Z,94538.05
2023-03-31T21:59:08.745Z,94543.59
2023-03-31T22:01:37.781Z,94542.06
2023-03-31T22:04:09.567Z,94544.91
2023-03-31T22:06:39.954Z,94535.61
2023-03-31T22:09:08.746Z,94547.02
2023-03-31T22:11:37.602Z,94541.50
2023-03-31T22:14:06.761Z,94536.92
2023-03-31T22:16:35.587Z,94535.16
2023-03-31T22:19:04.916Z,94527.12
2023-03-31T22:21:33.693Z,94532.24
2023-03-31T22:24:02.966Z,94519.84
2023-03-31T22:26:32.388Z,94523.30
2023-03-31T22:29:01.185Z,94517.23
2023-03-31T22:31:30.037Z,94522.35
2023-03-31T22:34:01.172Z,94522.56
2023-03-31T22:36:30.175Z,94529.47
2023-03-31T22:38:58.984Z,94526.77
2023-03-31T22:41:30.465Z,94524.67
2023-03-31T22:43:59.836Z,94528.84
2023-03-31T22:46:28.885Z,94534.64
2023-03-31T22:48:59.488Z,94521.70
2023-03-31T22:51:31.138Z,94518.42
2023-03-31T22:54:01.590Z,94513.09
2023-03-31T22:56:30.869Z,94512.94
2023-03-31T22:59:09.133Z,94512.94
2023-03-31T23:04:59.986Z,94507.63
2023-03-31T23:07:30.310Z,94510.66
2023-03-31T23:10:02.061Z,94510.07
2023-03-31T23:12:30.990Z,94513.09
2023-03-31T23:14:59.714Z,94508.52
2023-03-31T23:17:28.431Z,94503.19
2023-03-31T23:19:58.940Z,94490.61
2023-03-31T23:22:27.732Z,94498.25
2023-03-31T23:24:56.885Z,94500.11
2023-03-31T23:27:25.611Z,94496.48
2023-03-31T23:29:54.331Z,94493.62
2023-03-31T23:32:23.090Z,94494.02
2023-03-31T23:34:51.901Z,94493.58
2023-03-31T23:37:20.611Z,94483.66
2023-03-31T23:39:49.438Z,94492.63
2023-03-31T23:42:19.916Z,94485.23
2023-03-31T23:44:48.830Z,94476.13
2023-03-31T23:47:17.674Z,94472.66
2023-03-31T23:49:46.837Z,94464.28
2023-03-31T23:52:15.525Z,94465.64
2023-03-31T23:54:44.339Z,94461.82
2023-03-31T23:57:13.254Z,94461.80
2023-03-31T23:59:41.977Z,94467.68
